createdAt,value
2019-02-14T00:00:01.882Z,40.70
2019-02-14T00:01:01.905Z,40.50
2019-02-14T00:02:01.917Z,40.00
2019-02-14T00:03:01.834Z,39.70
2019-02-14T00:04:01.838Z,40.10
2019-02-14T00:05:01.831Z,38.60
2019-02-14T00:06:01.821Z,40.90
2019-02-14T00:07:01.802Z,38.90
2019-02-14T00:08:01.907Z,39.40
2019-02-14T00:09:01.822Z,38.20
2019-02-14T00:10:01.778Z,39.50
2019-02-14T00:11:01.783Z,40.00
2019-02-14T00:12:01.747Z,37.80
2019-02-14T00:13:01.735Z,37.90
2019-02-14T00:14:01.726Z,37.10
2019-02-14T00:15:01.718Z,37.80
2019-02-14T00:16:01.700Z,38.40
2019-02-14T00:17:01.696Z,35.00
2019-02-14T00:18:01.679Z,38.80
2019-02-14T00:19:01.666Z,36.80
2019-02-14T00:20:01.650Z,35.50
2019-02-14T00:21:01.633Z,37.30
2019-02-14T00:22:01.650Z,36.60
2019-02-14T00:23:01.617Z,34.90
2019-02-14T00:24:01.610Z,35.60
2019-02-14T00:25:01.595Z,36.40
2019-02-14T00:26:01.602Z,36.50
2019-02-14T00:27:01.582Z,34.20
2019-02-14T00:28:01.577Z,36.90
2019-02-14T00:29:01.556Z,35.60
2019-02-14T00:30:01.547Z,35.90
2019-02-14T00:31:01.539Z,34.80
2019-02-14T00:32:01.524Z,34.60
2019-02-14T00:33:01.508Z,34.90
2019-02-14T00:34:01.503Z,34.70
2019-02-14T00:35:01.491Z,34.00
2019-02-14T00:36:01.475Z,34.50
2019-02-14T00:37:01.471Z,34.10
2019-02-14T00:38:01.473Z,34.60
2019-02-14T00:39:01.450Z,35.10
2019-02-14T00:40:01.448Z,33.60
2019-02-14T00:41:01.423Z,34.50
2019-02-14T00:42:01.407Z,33.10
2019-02-14T00:43:01.412Z,32.70
2019-02-14T00:44:01.383Z,34.60
2019-02-14T00:45:01.399Z,33.50
2019-02-14T00:46:01.368Z,33.90
2019-02-14T00:47:01.348Z,34.30
2019-02-14T00:48:01.340Z,33.20
2019-02-14T00:49:01.417Z,34.00
2019-02-14T00:50:01.365Z,34.00
2019-02-14T00:51:01.362Z,32.10
2019-02-14T00:52:01.349Z,33.30
2019-02-14T00:53:01.308Z,33.00
2019-02-14T00:54:01.274Z,32.20
2019-02-14T00:55:01.274Z,32.60
2019-02-14T00:56:01.251Z,32.70
2019-02-14T00:57:01.297Z,33.40
2019-02-14T00:58:01.232Z,34.50
2019-02-14T00:59:01.235Z,33.80
2019-02-14T01:00:01.212Z,34.00
2019-02-14T01:01:01.194Z,33.30
2019-02-14T01:02:01.193Z,34.20
2019-02-14T01:03:01.175Z,33.30
2019-02-14T01:04:01.160Z,33.50
2019-02-14T01:05:01.148Z,34.00
2019-02-14T01:06:01.150Z,33.50
2019-02-14T01:07:01.150Z,34.10
2019-02-14T01:08:01.204Z,33.70
2019-02-14T01:09:01.100Z,33.60
2019-02-14T01:10:01.094Z,33.00
2019-02-14T01:11:01.084Z,34.10
2019-02-14T01:12:01.086Z,34.10
2019-02-14T01:13:01.072Z,32.60
2019-02-14T01:14:01.066Z,33.40
2019-02-14T01:15:01.051Z,32.90
2019-02-14T01:16:01.026Z,33.80
2019-02-14T01:17:01.020Z,34.40
2019-02-14T01:18:01.011Z,33.00
2019-02-14T01:19:01.034Z,32.80
2019-02-14T01:20:00.981Z,33.80
2019-02-14T01:21:00.980Z,33.50
2019-02-14T01:22:00.962Z,33.30
2019-02-14T01:23:00.960Z,32.60
2019-02-14T01:24:00.952Z,33.50
2019-02-14T01:25:00.927Z,32.60
2019-02-14T01:26:00.918Z,34.30
2019-02-14T01:27:00.907Z,32.10
2019-02-14T01:28:00.897Z,32.60
2019-02-14T01:29:00.885Z,33.20
2019-02-14T01:30:00.877Z,32.10
2019-02-14T01:31:00.856Z,32.00
2019-02-14T01:32:00.847Z,31.60
2019-02-14T01:33:00.836Z,32.60
2019-02-14T01:34:00.837Z,30.70
2019-02-14T01:35:00.819Z,31.80
2019-02-14T01:36:00.806Z,31.00
2019-02-14T01:37:00.791Z,31.40
2019-02-14T01:38:00.787Z,30.30
2019-02-14T01:39:00.773Z,30.60
2019-02-14T01:40:00.768Z,30.60
2019-02-14T01:41:00.764Z,31.80
2019-02-14T01:42:00.741Z,30.40
2019-02-14T01:43:00.721Z,29.40
2019-02-14T01:44:00.714Z,31.40
2019-02-14T01:45:00.705Z,30.30
2019-02-14T01:46:00.697Z,31.00
2019-02-14T01:47:00.695Z,29.50
2019-02-14T01:48:00.668Z,29.40
2019-02-14T01:49:00.659Z,30.10
2019-02-14T01:50:00.656Z,30.50
2019-02-14T01:51:00.652Z,30.40
2019-02-14T01:52:00.668Z,30.20
2019-02-14T01:53:00.636Z,30.70
2019-02-14T01:54:00.630Z,29.70
2019-02-14T01:55:00.603Z,28.50
2019-02-14T01:56:00.587Z,30.20
2019-02-14T01:57:00.566Z,29.40
2019-02-14T01:58:00.594Z,29.30
2019-02-14T01:59:00.552Z,28.60
2019-02-14T02:00:00.532Z,29.60
2019-02-14T02:01:00.526Z,31.40
2019-02-14T02:02:00.504Z,29.30
2019-02-14T02:03:00.501Z,29.20
2019-02-14T02:04:00.506Z,29.40
2019-02-14T02:05:00.501Z,28.70
2019-02-14T02:06:00.472Z,28.90
2019-02-14T02:07:00.457Z,28.60
2019-02-14T02:08:00.456Z,29.40
2019-02-14T02:09:00.439Z,27.40
2019-02-14T02:10:00.434Z,27.40
2019-02-14T02:11:00.413Z,28.80
2019-02-14T02:12:00.404Z,27.80
2019-02-14T02:13:00.404Z,27.60
2019-02-14T02:14:00.373Z,26.40
2019-02-14T02:15:00.377Z,27.30
2019-02-14T02:16:00.381Z,26.30
2019-02-14T02:17:00.357Z,26.70
2019-02-14T02:18:00.335Z,26.30
2019-02-14T02:19:00.325Z,26.30
2019-02-14T02:20:00.359Z,26.50
2019-02-14T02:21:00.314Z,26.80
2019-02-14T02:22:00.311Z,25.40
2019-02-14T02:23:00.287Z,26.50
2019-02-14T02:24:00.274Z,26.80
2019-02-14T02:25:00.280Z,25.70
2019-02-14T02:26:00.251Z,25.50
2019-02-14T02:27:00.246Z,26.00
2019-02-14T02:28:00.257Z,26.80
2019-02-14T02:29:00.209Z,25.30
2019-02-14T02:30:00.608Z,26.10
2019-02-14T02:31:00.229Z,25.90
2019-02-14T02:32:00.191Z,26.00
2019-02-14T02:33:00.182Z,25.20
2019-02-14T02:34:00.150Z,24.90
2019-02-14T02:35:00.399Z,24.20
2019-02-14T02:36:00.779Z,24.90
2019-02-14T02:37:00.123Z,26.10
2019-02-14T02:38:00.128Z,26.10
2019-02-14T02:39:00.099Z,24.50
2019-02-14T02:40:00.126Z,25.20
2019-02-14T02:41:00.083Z,24.20
2019-02-14T02:42:00.082Z,24.90
2019-02-14T02:43:00.066Z,25.40
2019-02-14T02:44:00.058Z,24.70
2019-02-14T02:45:00.035Z,24.50
2019-02-14T02:46:00.019Z,24.60
2019-02-14T02:46:59.997Z,24.30
2019-02-14T02:47:59.991Z,23.30
2019-02-14T02:48:59.994Z,23.00
2019-02-14T02:49:59.971Z,24.90
2019-02-14T02:50:59.964Z,24.10
2019-02-14T02:51:59.950Z,23.70
2019-02-14T02:52:59.946Z,23.50
2019-02-14T02:53:59.922Z,23.10
2019-02-14T02:54:59.924Z,22.90
2019-02-14T02:55:59.933Z,22.70
2019-02-14T02:56:59.896Z,23.50
2019-02-14T02:57:59.883Z,23.30
2019-02-14T02:58:59.881Z,24.10
2019-02-14T02:59:59.861Z,23.30
2019-02-14T03:00:59.860Z,23.00
2019-02-14T03:01:59.848Z,24.90
2019-02-14T03:02:59.824Z,23.90
2019-02-14T03:03:59.813Z,23.30
2019-02-14T03:04:59.802Z,23.10
2019-02-14T03:05:59.801Z,23.50
2019-02-14T03:06:59.784Z,20.80
2019-02-14T03:07:59.774Z,23.80
2019-02-14T03:08:59.759Z,23.20
2019-02-14T03:09:59.747Z,22.10
2019-02-14T03:10:59.748Z,22.60
2019-02-14T03:11:59.734Z,23.70
2019-02-14T03:12:59.728Z,23.30
2019-02-14T03:13:59.709Z,23.10
2019-02-14T03:14:59.695Z,23.10
2019-02-14T03:15:59.697Z,23.60
2019-02-14T03:16:59.716Z,24.50
2019-02-14T03:17:59.667Z,22.60
2019-02-14T03:18:59.658Z,26.10
2019-02-14T03:19:59.635Z,24.90
2019-02-14T03:20:59.628Z,24.80
2019-02-14T03:21:59.643Z,25.40
2019-02-14T03:22:59.618Z,25.60
2019-02-14T03:23:59.607Z,25.90
2019-02-14T03:24:59.614Z,24.90
2019-02-14T03:25:59.686Z,25.00
2019-02-14T03:26:59.566Z,24.70
2019-02-14T03:27:59.556Z,25.50
2019-02-14T03:28:59.548Z,23.90
2019-02-14T03:29:59.548Z,23.10
2019-02-14T03:30:59.528Z,22.90
2019-02-14T03:31:59.513Z,24.70
2019-02-14T03:32:59.496Z,23.40
2019-02-14T03:33:59.480Z,25.10
2019-02-14T03:34:59.480Z,23.00
2019-02-14T03:35:59.480Z,24.40
2019-02-14T03:36:59.455Z,22.90
2019-02-14T03:37:59.440Z,23.70
2019-02-14T03:38:59.440Z,22.30
2019-02-14T03:39:59.420Z,22.60
2019-02-14T03:40:59.422Z,22.40
2019-02-14T03:41:59.449Z,21.90
2019-02-14T03:42:59.387Z,23.20
2019-02-14T03:43:59.428Z,23.10
2019-02-14T03:44:59.378Z,22.50
2019-02-14T03:45:59.359Z,22.50
2019-02-14T03:46:59.351Z,22.60
2019-02-14T03:47:59.343Z,21.90
2019-02-14T03:48:59.323Z,21.90
2019-02-14T03:49:59.314Z,22.50
2019-02-14T03:50:59.299Z,21.70
2019-02-14T03:51:59.285Z,21.00
2019-02-14T03:52:59.271Z,22.20
2019-02-14T03:53:59.259Z,21.10
2019-02-14T03:54:59.249Z,22.00
2019-02-14T03:55:59.241Z,20.90
2019-02-14T03:56:59.225Z,21.60
2019-02-14T03:57:59.231Z,20.60
2019-02-14T03:58:59.206Z,21.10
2019-02-14T03:59:59.190Z,20.60
2019-02-14T04:00:59.204Z,20.50
2019-02-14T04:01:59.179Z,19.80
2019-02-14T04:02:59.175Z,19.80
2019-02-14T04:03:59.159Z,19.60
2019-02-14T04:04:59.141Z,20.60
2019-02-14T04:05:59.132Z,20.70
2019-02-14T04:06:59.121Z,21.80
2019-02-14T04:07:59.106Z,19.70
2019-02-14T04:08:59.108Z,19.50
2019-02-14T04:09:59.104Z,19.40
2019-02-14T04:10:59.078Z,22.00
2019-02-14T04:11:59.067Z,20.60
2019-02-14T04:12:59.044Z,20.40
2019-02-14T04:13:59.046Z,20.70
2019-02-14T04:14:59.064Z,20.60
2019-02-14T04:15:59.021Z,21.30
2019-02-14T04:16:59.012Z,21.10
2019-02-14T04:17:58.996Z,20.20
2019-02-14T04:18:58.980Z,21.30
2019-02-14T04:19:58.979Z,19.90
2019-02-14T04:20:58.977Z,18.60
2019-02-14T04:21:58.974Z,19.10
2019-02-14T04:22:58.939Z,20.70
2019-02-14T04:23:58.933Z,20.70
2019-02-14T04:24:58.919Z,20.90
2019-02-14T04:25:58.921Z,20.90
2019-02-14T04:26:58.922Z,21.20
2019-02-14T04:27:58.947Z,19.50
2019-02-14T04:28:58.871Z,21.30
2019-02-14T04:29:58.861Z,21.00
2019-02-14T04:30:58.855Z,20.20
2019-02-14T04:31:58.861Z,20.70
2019-02-14T04:32:58.831Z,19.70
2019-02-14T04:33:58.817Z,19.50
2019-02-14T04:34:58.801Z,20.80
2019-02-14T04:35:58.789Z,19.90
2019-02-14T04:36:58.793Z,19.90
2019-02-14T04:37:58.768Z,20.30
2019-02-14T04:38:58.759Z,19.80
2019-02-14T04:39:58.753Z,20.70
2019-02-14T04:40:58.740Z,19.60
2019-02-14T04:41:58.729Z,19.10
2019-02-14T04:42:58.735Z,18.80
2019-02-14T04:43:58.731Z,20.00
2019-02-14T04:44:58.700Z,20.10
2019-02-14T04:45:58.680Z,19.50
2019-02-14T04:46:58.665Z,19.00
2019-02-14T04:47:58.662Z,19.10
2019-02-14T04:48:58.697Z,19.30
2019-02-14T04:49:58.642Z,19.40
2019-02-14T04:50:58.631Z,19.40
2019-02-14T04:51:58.618Z,19.20
2019-02-14T04:52:58.609Z,20.30
2019-02-14T04:53:58.602Z,20.50
2019-02-14T04:54:58.602Z,20.00
2019-02-14T04:55:58.583Z,20.00
2019-02-14T04:56:58.559Z,19.30
2019-02-14T04:57:58.546Z,19.90
2019-02-14T04:58:58.544Z,19.40
2019-02-14T04:59:58.534Z,19.20
2019-02-14T05:00:58.535Z,19.20
2019-02-14T05:01:58.498Z,18.70
2019-02-14T05:02:58.492Z,18.20
2019-02-14T05:03:58.477Z,19.40
2019-02-14T05:04:58.477Z,19.70
2019-02-14T05:05:58.467Z,19.00
2019-02-14T05:06:58.479Z,19.40
2019-02-14T05:07:58.445Z,18.60
2019-02-14T05:08:58.424Z,19.50
2019-02-14T05:09:58.425Z,20.40
2019-02-14T05:10:58.412Z,19.00
2019-02-14T05:11:58.438Z,19.90
2019-02-14T05:12:58.381Z,18.80
2019-02-14T05:13:58.427Z,19.70
2019-02-14T05:14:58.356Z,19.40
2019-02-14T05:15:58.347Z,19.30
2019-02-14T05:16:58.355Z,18.60
2019-02-14T05:17:58.333Z,18.80
2019-02-14T05:18:58.309Z,19.10
2019-02-14T05:19:58.299Z,19.30
2019-02-14T05:20:58.291Z,18.30
2019-02-14T05:21:58.293Z,18.60
2019-02-14T05:22:58.292Z,19.30
2019-02-14T05:23:58.259Z,17.60
2019-02-14T05:24:58.237Z,19.70
2019-02-14T05:25:58.231Z,19.50
2019-02-14T05:26:58.223Z,19.10
2019-02-14T05:27:58.234Z,19.10
2019-02-14T05:28:58.197Z,18.60
2019-02-14T05:29:58.189Z,17.60
2019-02-14T05:30:58.170Z,18.10
2019-02-14T05:31:58.173Z,19.40
2019-02-14T05:32:58.160Z,18.90
2019-02-14T05:33:58.154Z,19.00
2019-02-14T05:34:58.138Z,17.80
2019-02-14T05:35:58.131Z,19.60
2019-02-14T05:36:58.112Z,18.80
2019-02-14T05:37:58.094Z,17.90
2019-02-14T05:38:58.096Z,19.00
2019-02-14T05:39:58.072Z,19.10
2019-02-14T05:40:58.078Z,18.90
2019-02-14T05:41:58.054Z,18.70
2019-02-14T05:42:58.044Z,18.70
2019-02-14T05:43:58.042Z,19.30
2019-02-14T05:44:58.042Z,19.10
2019-02-14T05:45:58.012Z,20.10
2019-02-14T05:46:58.000Z,21.20
2019-02-14T05:47:57.986Z,21.90
2019-02-14T05:48:57.970Z,22.70
2019-02-14T05:49:57.991Z,22.20
2019-02-14T05:50:57.970Z,22.90
2019-02-14T05:51:57.952Z,23.00
2019-02-14T05:52:57.927Z,22.20
2019-02-14T05:53:57.924Z,22.10
2019-02-14T05:54:57.906Z,22.00
2019-02-14T05:55:57.909Z,22.90
2019-02-14T05:56:57.900Z,21.50
2019-02-14T05:57:57.969Z,21.80
2019-02-14T05:58:57.855Z,21.30
2019-02-14T05:59:57.857Z,21.00
2019-02-14T06:00:57.848Z,21.00
2019-02-14T06:01:57.841Z,21.50
2019-02-14T06:02:57.821Z,21.00
2019-02-14T06:03:57.825Z,21.90
2019-02-14T06:04:57.794Z,21.30
2019-02-14T06:05:57.785Z,20.80
2019-02-14T06:07:01.046Z,20.50
2019-02-14T06:07:57.775Z,20.80
2019-02-14T06:08:57.755Z,20.30
2019-02-14T06:09:57.757Z,20.10
2019-02-14T06:10:57.729Z,19.20
2019-02-14T06:11:57.715Z,19.90
2019-02-14T06:12:57.717Z,19.00
2019-02-14T06:13:57.735Z,19.10
2019-02-14T06:14:57.691Z,18.60
2019-02-14T06:15:57.679Z,19.40
2019-02-14T06:16:57.665Z,17.60
2019-02-14T06:17:57.653Z,20.10
2019-02-14T06:18:57.653Z,19.30
2019-02-14T06:19:57.631Z,18.60
2019-02-14T06:20:57.633Z,19.10
2019-02-14T06:21:57.610Z,19.20
2019-02-14T06:22:57.600Z,20.10
2019-02-14T06:23:57.587Z,19.50
2019-02-14T06:24:57.586Z,20.50
2019-02-14T06:25:57.569Z,20.10
2019-02-14T06:26:57.555Z,20.10
2019-02-14T06:27:57.543Z,20.30
2019-02-14T06:28:57.530Z,19.90
2019-02-14T06:29:57.526Z,21.80
2019-02-14T06:30:57.520Z,20.30
2019-02-14T06:31:57.506Z,21.20
2019-02-14T06:32:57.482Z,20.50
2019-02-14T06:33:57.474Z,21.40
2019-02-14T06:34:57.462Z,22.90
2019-02-14T06:35:57.462Z,22.10
2019-02-14T06:36:57.454Z,20.10
2019-02-14T06:37:57.437Z,21.60
2019-02-14T06:38:57.416Z,22.30
2019-02-14T06:39:57.410Z,21.90
2019-02-14T06:40:57.392Z,20.60
2019-02-14T06:41:57.399Z,23.50
2019-02-14T06:42:57.379Z,21.70
2019-02-14T06:43:57.383Z,22.00
2019-02-14T06:44:57.346Z,21.30
2019-02-14T06:45:57.337Z,22.00
2019-02-14T06:46:57.331Z,21.60
2019-02-14T06:47:57.329Z,22.80
2019-02-14T06:48:57.338Z,21.00
2019-02-14T06:49:57.302Z,22.00
2019-02-14T06:50:57.289Z,21.90
2019-02-14T06:51:57.269Z,21.40
2019-02-14T06:52:57.269Z,21.80
2019-02-14T06:53:57.250Z,22.20
2019-02-14T06:54:57.247Z,23.00
2019-02-14T06:55:57.275Z,21.80
2019-02-14T06:56:57.221Z,22.90
2019-02-14T06:57:57.211Z,22.50
2019-02-14T06:58:57.209Z,22.80
2019-02-14T06:59:57.190Z,23.10
2019-02-14T07:00:57.177Z,24.30
2019-02-14T07:01:57.171Z,23.60
2019-02-14T07:02:57.152Z,24.60
2019-02-14T07:03:57.145Z,23.50
2019-02-14T07:04:57.135Z,23.40
2019-02-14T07:05:57.115Z,23.20
2019-02-14T07:06:57.111Z,24.20
2019-02-14T07:07:57.095Z,24.20
2019-02-14T07:08:57.085Z,24.10
2019-02-14T07:09:57.082Z,23.90
2019-02-14T07:10:57.724Z,24.10
2019-02-14T07:11:57.070Z,22.80
2019-02-14T07:12:57.050Z,24.50
2019-02-14T07:13:57.055Z,23.70
2019-02-14T07:14:57.022Z,23.20
2019-02-14T07:15:57.014Z,22.20
2019-02-14T07:16:57.002Z,23.70
2019-02-14T07:17:56.991Z,23.70
2019-02-14T07:18:56.970Z,22.30
2019-02-14T07:19:56.974Z,21.30
2019-02-14T07:20:56.960Z,21.00
2019-02-14T07:21:56.949Z,21.50
2019-02-14T07:22:56.932Z,22.50
2019-02-14T07:23:56.921Z,21.80
2019-02-14T07:24:56.904Z,20.50
2019-02-14T07:25:56.892Z,20.80
2019-02-14T07:26:56.894Z,21.00
2019-02-14T07:27:56.889Z,21.40
2019-02-14T07:28:56.863Z,21.20
2019-02-14T07:29:56.882Z,20.80
2019-02-14T07:30:56.922Z,20.90
2019-02-14T07:31:56.830Z,20.70
2019-02-14T07:32:56.838Z,20.70
2019-02-14T07:33:56.807Z,21.30
2019-02-14T07:34:56.802Z,21.10
2019-02-14T07:35:56.800Z,20.00
2019-02-14T07:36:56.767Z,20.30
2019-02-14T07:37:56.763Z,21.20
2019-02-14T07:38:56.764Z,21.00
2019-02-14T07:39:56.741Z,21.20
2019-02-14T07:40:56.742Z,21.70
2019-02-14T07:41:56.730Z,20.00
2019-02-14T07:42:56.705Z,19.50
2019-02-14T07:43:56.699Z,21.00
2019-02-14T07:44:56.699Z,21.30
2019-02-14T07:45:56.687Z,21.60
2019-02-14T07:46:56.656Z,20.40
2019-02-14T07:47:56.669Z,21.80
2019-02-14T07:48:56.641Z,21.70
2019-02-14T07:49:56.640Z,21.40
2019-02-14T07:50:56.640Z,21.90
2019-02-14T07:51:56.615Z,21.80
2019-02-14T07:52:56.598Z,20.60
2019-02-14T07:54:03.772Z,21.40
2019-02-14T07:55:38.254Z,20.50
2019-02-14T07:56:38.220Z,21.20
2019-02-14T07:58:19.883Z,21.80
2019-02-14T07:59:19.863Z,23.00
2019-02-14T08:01:01.525Z,20.20
2019-02-14T08:02:01.518Z,21.00
2019-02-14T08:03:01.504Z,20.70
2019-02-14T08:04:01.492Z,21.70
2019-02-14T08:05:01.488Z,20.80
2019-02-14T08:06:01.471Z,19.60
2019-02-14T08:07:01.461Z,21.30
2019-02-14T08:08:01.454Z,20.80
2019-02-14T08:09:01.446Z,21.90
2019-02-14T08:10:01.438Z,21.20
2019-02-14T08:11:01.413Z,20.40
2019-02-14T08:12:01.405Z,20.20
2019-02-14T08:13:01.395Z,21.40
2019-02-14T08:14:01.384Z,20.30
2019-02-14T08:15:01.372Z,20.50
2019-02-14T08:16:01.358Z,20.20
2019-02-14T08:17:01.359Z,20.00
2019-02-14T08:18:01.340Z,20.10
2019-02-14T08:19:01.328Z,21.10
2019-02-14T08:20:01.323Z,20.20
2019-02-14T08:21:01.315Z,20.30
2019-02-14T08:22:01.289Z,20.40
2019-02-14T08:23:01.286Z,21.90
2019-02-14T08:24:01.278Z,21.20
2019-02-14T08:25:01.266Z,20.70
2019-02-14T08:26:01.255Z,21.00
2019-02-14T08:27:01.247Z,20.70
2019-02-14T08:28:01.230Z,19.70
2019-02-14T08:29:01.221Z,20.60
2019-02-14T08:30:01.208Z,19.80
2019-02-14T08:31:01.197Z,21.10
2019-02-14T08:32:01.186Z,21.80
2019-02-14T08:33:01.179Z,21.60
2019-02-14T08:34:01.166Z,22.90
2019-02-14T08:35:01.179Z,21.50
2019-02-14T08:36:01.145Z,21.00
2019-02-14T08:37:01.135Z,21.70
2019-02-14T08:38:01.126Z,23.00
2019-02-14T08:39:01.190Z,21.70
2019-02-14T08:40:01.106Z,21.10
2019-02-14T08:41:01.100Z,22.80
2019-02-14T08:42:01.082Z,22.70
2019-02-14T08:43:01.069Z,22.40
2019-02-14T08:44:01.059Z,22.50
2019-02-14T08:45:01.092Z,21.90
2019-02-14T08:46:01.035Z,23.10
2019-02-14T08:47:01.031Z,22.90
2019-02-14T08:48:01.022Z,21.90
2019-02-14T08:49:01.011Z,22.60
2019-02-14T08:50:00.989Z,22.10
2019-02-14T08:51:00.981Z,23.20
2019-02-14T08:52:00.973Z,25.00
2019-02-14T08:53:00.964Z,23.40
2019-02-14T08:54:00.982Z,24.00
2019-02-14T08:55:01.059Z,24.60
2019-02-14T08:56:00.934Z,25.10
2019-02-14T08:57:00.924Z,24.10
2019-02-14T08:58:00.916Z,23.70
2019-02-14T08:59:00.913Z,23.70
2019-02-14T09:00:00.913Z,22.90
2019-02-14T09:01:00.870Z,23.00
2019-02-14T09:02:00.863Z,22.90
2019-02-14T09:03:00.881Z,23.90
2019-02-14T09:04:00.837Z,23.00
2019-02-14T09:05:00.832Z,23.10
2019-02-14T09:06:00.834Z,22.90
2019-02-14T09:07:00.815Z,23.40
2019-02-14T09:08:00.815Z,23.20
2019-02-14T09:09:00.825Z,24.10
2019-02-14T09:10:00.818Z,23.00
2019-02-14T09:11:00.761Z,22.70
2019-02-14T09:12:00.761Z,23.00
2019-02-14T09:13:00.744Z,24.20
2019-02-14T09:14:00.729Z,23.50
2019-02-14T09:15:00.721Z,21.50
2019-02-14T09:16:00.717Z,22.70
2019-02-14T09:17:00.714Z,22.30
2019-02-14T09:18:00.693Z,22.10
2019-02-14T09:19:00.726Z,22.50
2019-02-14T09:20:00.668Z,22.60
2019-02-14T09:21:00.662Z,22.10
2019-02-14T09:22:00.662Z,22.20
2019-02-14T09:23:00.633Z,21.90
2019-02-14T09:24:00.623Z,22.10
2019-02-14T09:25:00.617Z,22.30
2019-02-14T09:26:02.367Z,22.10
2019-02-14T09:27:00.592Z,22.20
2019-02-14T09:28:00.609Z,22.00
2019-02-14T09:29:00.568Z,22.30
2019-02-14T09:30:00.619Z,23.40
2019-02-14T09:31:00.566Z,22.40
2019-02-14T09:32:00.606Z,21.80
2019-02-14T09:33:00.522Z,23.00
2019-02-14T09:34:00.535Z,22.40
2019-02-14T09:35:00.510Z,21.70
2019-02-14T09:36:00.490Z,22.90
2019-02-14T09:37:00.478Z,22.10
2019-02-14T09:38:03.430Z,21.90
2019-02-14T09:39:00.469Z,23.70
2019-02-14T09:40:00.453Z,22.00
2019-02-14T09:41:00.460Z,22.00
2019-02-14T09:42:00.426Z,21.60
2019-02-14T09:43:00.416Z,22.00
2019-02-14T09:44:00.398Z,22.40
2019-02-14T09:45:00.405Z,23.00
2019-02-14T09:46:00.391Z,22.20
2019-02-14T09:47:00.363Z,22.20
2019-02-14T09:48:00.358Z,22.80
2019-02-14T09:49:00.338Z,22.30
2019-02-14T09:50:00.402Z,22.70
2019-02-14T09:51:00.322Z,21.10
2019-02-14T09:52:00.304Z,22.20
2019-02-14T09:53:00.314Z,21.80
2019-02-14T09:54:00.290Z,22.10
2019-02-14T09:55:00.362Z,21.20
2019-02-14T09:56:00.281Z,21.70
2019-02-14T09:57:00.265Z,22.40
2019-02-14T09:58:00.241Z,19.90
2019-02-14T09:59:00.232Z,21.60
2019-02-14T10:00:00.348Z,20.20
2019-02-14T10:01:00.216Z,19.90
2019-02-14T10:02:00.228Z,21.40
2019-02-14T10:03:00.182Z,20.60
2019-02-14T10:04:00.169Z,21.00
2019-02-14T10:05:00.235Z,20.40
2019-02-14T10:06:00.186Z,21.10
2019-02-14T10:07:00.161Z,21.30
2019-02-14T10:08:00.148Z,20.70
2019-02-14T10:09:00.738Z,20.40
2019-02-14T10:10:00.106Z,19.90
2019-02-14T10:11:00.101Z,20.60
2019-02-14T10:12:00.090Z,20.50
2019-02-14T10:13:00.075Z,20.00
2019-02-14T10:14:00.064Z,19.30
2019-02-14T10:15:00.154Z,18.80
2019-02-14T10:16:00.044Z,18.30
2019-02-14T10:17:00.074Z,18.30
2019-02-14T10:18:00.014Z,19.50
2019-02-14T10:19:00.029Z,18.40
2019-02-14T10:19:59.996Z,18.10
2019-02-14T10:20:59.991Z,17.70
2019-02-14T10:21:59.975Z,17.90
2019-02-14T10:22:59.963Z,17.50
2019-02-14T10:23:59.945Z,17.30
2019-02-14T10:24:59.941Z,18.30
2019-02-14T10:25:59.930Z,19.10
2019-02-14T10:26:59.932Z,19.80
2019-02-14T10:27:59.917Z,20.90
2019-02-14T10:28:59.910Z,19.50
2019-02-14T10:29:59.886Z,19.60
2019-02-14T10:30:59.870Z,19.50
2019-02-14T10:31:59.862Z,19.00
2019-02-14T10:32:59.851Z,19.50
2019-02-14T10:33:59.834Z,20.40
2019-02-14T10:34:59.827Z,18.70
2019-02-14T10:35:59.821Z,19.00
2019-02-14T10:36:59.835Z,18.30
2019-02-14T10:37:59.851Z,16.60
2019-02-14T10:38:59.805Z,16.70
2019-02-14T10:39:59.777Z,17.80
2019-02-14T10:40:59.764Z,17.20
2019-02-14T10:41:59.778Z,17.30
2019-02-14T10:42:59.738Z,16.40
2019-02-14T10:43:59.733Z,16.00
2019-02-14T10:44:59.733Z,17.30
2019-02-14T10:45:59.710Z,16.20
2019-02-14T10:46:59.698Z,16.60
2019-02-14T10:47:59.688Z,16.70
2019-02-14T10:48:59.674Z,16.20
2019-02-14T10:49:59.669Z,15.60
2019-02-14T10:50:59.654Z,16.80
2019-02-14T10:51:59.640Z,14.70
2019-02-14T10:52:59.631Z,15.50
2019-02-14T10:53:59.617Z,15.40
2019-02-14T10:54:59.612Z,14.40
2019-02-14T10:55:59.610Z,14.70
2019-02-14T10:56:59.583Z,14.70
2019-02-14T10:57:59.578Z,13.90
2019-02-14T10:58:59.565Z,14.30
2019-02-14T10:59:59.556Z,14.70
2019-02-14T11:00:59.549Z,13.60
2019-02-14T11:01:59.532Z,14.20
2019-02-14T11:02:59.526Z,15.00
2019-02-14T11:03:59.508Z,16.00
2019-02-14T11:04:59.630Z,14.20
2019-02-14T11:05:59.485Z,14.40
2019-02-14T11:06:59.566Z,13.70
2019-02-14T11:07:59.487Z,13.30
2019-02-14T11:08:59.455Z,13.70
2019-02-14T11:09:59.447Z,14.90
2019-02-14T11:10:59.442Z,13.90
2019-02-14T11:11:59.423Z,13.90
2019-02-14T11:12:59.415Z,13.00
2019-02-14T11:13:59.413Z,13.10
2019-02-14T11:14:59.393Z,13.10
2019-02-14T11:15:59.384Z,12.50
2019-02-14T11:16:59.369Z,12.80
2019-02-14T11:17:59.364Z,13.30
2019-02-14T11:18:59.353Z,13.20
2019-02-14T11:19:59.343Z,13.00
2019-02-14T11:20:59.413Z,12.70
2019-02-14T11:21:59.318Z,13.00
2019-02-14T11:22:59.301Z,13.60
2019-02-14T11:23:59.296Z,13.40
2019-02-14T11:24:59.422Z,13.70
2019-02-14T11:25:59.270Z,13.40
2019-02-14T11:26:59.256Z,14.90
2019-02-14T11:27:59.252Z,14.70
2019-02-14T11:28:59.242Z,14.00
2019-02-14T11:29:59.232Z,13.90
2019-02-14T11:30:59.218Z,15.50
2019-02-14T11:31:59.241Z,14.80
2019-02-14T11:32:59.234Z,15.30
2019-02-14T11:33:59.222Z,14.00
2019-02-14T11:34:59.232Z,14.90
2019-02-14T11:35:59.186Z,15.20
2019-02-14T11:36:59.163Z,15.30
2019-02-14T11:37:59.148Z,15.90
2019-02-14T11:38:59.138Z,15.10
2019-02-14T11:39:59.118Z,15.30
2019-02-14T11:40:59.108Z,15.20
2019-02-14T11:41:59.126Z,14.90
2019-02-14T11:42:59.083Z,14.40
2019-02-14T11:43:59.112Z,14.30
2019-02-14T11:44:59.069Z,15.50
2019-02-14T11:45:59.047Z,14.90
2019-02-14T11:46:59.041Z,15.40
2019-02-14T11:47:59.034Z,15.70
2019-02-14T11:48:59.016Z,15.40
2019-02-14T11:49:59.007Z,16.20
2019-02-14T11:50:59.005Z,17.80
2019-02-14T11:51:58.990Z,17.10
2019-02-14T11:52:58.974Z,16.50
2019-02-14T11:53:58.974Z,16.40
2019-02-14T11:54:59.006Z,16.80
2019-02-14T11:55:58.977Z,17.20
2019-02-14T11:56:58.933Z,17.60
2019-02-14T11:57:58.926Z,16.90
2019-02-14T11:58:58.916Z,17.00
2019-02-14T11:59:58.899Z,17.00
2019-02-14T12:00:58.890Z,17.40
2019-02-14T12:01:58.898Z,16.90
2019-02-14T12:02:58.885Z,17.30
2019-02-14T12:03:58.874Z,17.10
2019-02-14T12:04:58.886Z,17.40
2019-02-14T12:05:58.888Z,16.80
2019-02-14T12:06:58.847Z,16.10
2019-02-14T12:07:58.818Z,16.50
2019-02-14T12:09:00.405Z,16.90
2019-02-14T12:09:58.794Z,16.60
2019-02-14T12:10:58.785Z,17.00
2019-02-14T12:11:58.774Z,16.90
2019-02-14T12:12:58.769Z,16.00
2019-02-14T12:13:58.834Z,16.80
2019-02-14T12:14:58.798Z,16.20
2019-02-14T12:15:58.734Z,16.90
2019-02-14T12:16:58.744Z,16.60
2019-02-14T12:17:58.769Z,17.20
2019-02-14T12:18:58.724Z,17.00
2019-02-14T12:19:58.686Z,17.90
2019-02-14T12:20:58.672Z,16.90
2019-02-14T12:21:58.677Z,16.60
2019-02-14T12:22:58.666Z,17.60
2019-02-14T12:23:58.657Z,16.60
2019-02-14T12:24:58.647Z,17.10
2019-02-14T12:25:58.720Z,17.60
2019-02-14T12:26:58.612Z,15.20
2019-02-14T12:27:58.601Z,16.50
2019-02-14T12:28:58.593Z,16.70
2019-02-14T12:29:58.587Z,17.10
2019-02-14T12:30:58.575Z,16.60
2019-02-14T12:31:58.559Z,17.00
2019-02-14T12:32:58.617Z,17.00
2019-02-14T12:33:58.540Z,17.40
2019-02-14T12:34:58.527Z,17.10
2019-02-14T12:35:58.551Z,17.20
2019-02-14T12:36:58.513Z,16.40
2019-02-14T12:37:58.517Z,16.70
2019-02-14T12:38:58.480Z,18.00
2019-02-14T12:39:58.475Z,17.50
2019-02-14T12:40:58.493Z,16.80
2019-02-14T12:41:58.477Z,16.30
2019-02-14T12:42:58.468Z,17.50
2019-02-14T12:43:58.427Z,16.90
2019-02-14T12:44:58.417Z,17.40
2019-02-14T12:45:58.441Z,20.20
2019-02-14T12:46:58.410Z,19.20
2019-02-14T12:47:58.440Z,20.50
2019-02-14T12:48:58.425Z,17.30
2019-02-14T12:49:58.358Z,16.30
2019-02-14T12:50:58.360Z,19.20
2019-02-14T12:51:58.352Z,17.90
2019-02-14T12:52:58.343Z,18.10
2019-02-14T12:53:58.313Z,19.50